createdAt,value
2023-08-27T00:00:25.721Z,10.50
2023-08-27T00:12:26.190Z,10.70
2023-08-27T00:24:26.738Z,11.50
2023-08-27T00:36:27.118Z,11.10
2023-08-27T00:48:27.581Z,11.00
2023-08-27T01:00:28.011Z,11.30
2023-08-27T01:12:28.507Z,11.80
2023-08-27T01:24:28.922Z,11.40
2023-08-27T01:36:29.381Z,11.90
2023-08-27T01:48:29.866Z,11.80
2023-08-27T02:00:30.337Z,11.80
2023-08-27T02:12:30.753Z,11.50
2023-08-27T02:24:31.193Z,11.60
2023-08-27T02:36:31.650Z,12.00
2023-08-27T02:48:32.161Z,13.00
2023-08-27T03:00:32.609Z,12.80
2023-08-27T03:12:33.042Z,12.00
2023-08-27T03:24:33.501Z,12.20
2023-08-27T03:36:33.981Z,11.60
2023-08-27T03:48:34.371Z,12.00
2023-08-27T04:00:34.829Z,10.90
2023-08-27T04:12:37.497Z,10.90
2023-08-27T04:24:35.822Z,11.20
2023-08-27T04:36:36.193Z,11.30
2023-08-27T04:48:36.653Z,11.30
2023-08-27T05:00:37.129Z,11.00
2023-08-27T05:12:37.640Z,9.80
2023-08-27T05:24:38.028Z,8.50
2023-08-27T05:36:38.514Z,7.00
2023-08-27T05:48:38.939Z,4.90
2023-08-27T06:00:39.402Z,4.40
2023-08-27T06:12:39.865Z,4.50
2023-08-27T06:24:40.352Z,3.60
2023-08-27T06:36:40.750Z,2.80
2023-08-27T06:48:41.274Z,2.70
2023-08-27T07:00:41.685Z,2.50
2023-08-27T07:12:42.127Z,2.30
2023-08-27T07:24:42.584Z,3.00
2023-08-27T07:36:43.046Z,2.70
2023-08-27T07:48:43.494Z,2.70
2023-08-27T08:00:43.981Z,2.60
2023-08-27T08:12:44.388Z,3.00
2023-08-27T08:24:44.861Z,3.00
2023-08-27T08:36:45.334Z,3.30
2023-08-27T08:48:45.756Z,3.50
2023-08-27T09:00:46.228Z,3.40
2023-08-27T09:12:46.690Z,3.30
2023-08-27T09:24:47.132Z,3.80
2023-08-27T09:36:47.630Z,4.10
2023-08-27T09:48:48.075Z,5.40
2023-08-27T10:00:48.503Z,5.90
2023-08-27T10:12:48.978Z,5.80
2023-08-27T10:24:49.424Z,4.80
2023-08-27T10:36:49.869Z,4.40
2023-08-27T10:48:50.364Z,4.40
2023-08-27T11:00:50.848Z,4.70
2023-08-27T11:12:51.229Z,4.90
2023-08-27T11:24:51.707Z,5.20
2023-08-27T11:36:52.212Z,5.30
2023-08-27T11:48:52.603Z,5.30
2023-08-27T12:00:54.231Z,5.10
2023-08-27T12:12:53.564Z,5.10
2023-08-27T12:24:54.030Z,4.80
2023-08-27T12:36:54.492Z,5.20
2023-08-27T12:48:54.937Z,5.00
2023-08-27T13:00:55.347Z,5.40
2023-08-27T13:12:55.818Z,5.60
2023-08-27T13:24:56.260Z,5.50
2023-08-27T13:36:56.814Z,5.60
2023-08-27T13:48:57.187Z,6.30
2023-08-27T14:00:57.673Z,6.20
2023-08-27T14:12:58.102Z,5.90
2023-08-27T14:24:58.552Z,5.40
2023-08-27T14:36:59.058Z,5.90
2023-08-27T14:48:59.480Z,6.30
2023-08-27T15:00:59.978Z,6.10
2023-08-27T15:13:00.386Z,6.60
2023-08-27T15:25:00.845Z,6.60
2023-08-27T15:37:01.314Z,7.00
2023-08-27T15:49:01.780Z,8.70
2023-08-27T16:01:02.284Z,8.80
2023-08-27T16:13:02.702Z,10.30
2023-08-27T16:25:03.170Z,10.90
2023-08-27T16:37:03.617Z,10.70
2023-08-27T16:49:04.073Z,12.10
2023-08-27T17:01:04.497Z,12.00
2023-08-27T17:13:05.007Z,12.20
2023-08-27T17:25:05.425Z,12.10
2023-08-27T17:37:05.874Z,13.60
2023-08-27T17:49:06.336Z,13.10
2023-08-27T18:01:06.852Z,13.10
2023-08-27T18:13:07.271Z,10.10
2023-08-27T18:25:07.717Z,11.30
2023-08-27T18:37:08.159Z,10.50
2023-08-27T18:49:08.672Z,9.80
2023-08-27T19:01:09.130Z,9.50
2023-08-27T19:13:09.527Z,9.80
2023-08-27T19:25:10.029Z,9.80
2023-08-27T19:37:10.451Z,10.00
2023-08-27T19:49:10.915Z,10.00
2023-08-27T20:01:11.339Z,10.20
2023-08-27T20:13:11.856Z,10.90
2023-08-27T20:25:12.301Z,11.90
2023-08-27T20:37:12.716Z,11.70
2023-08-27T20:49:13.240Z,11.20
2023-08-27T21:01:13.705Z,13.60
2023-08-27T21:13:14.101Z,12.10
2023-08-27T21:25:14.540Z,11.90
2023-08-27T21:37:15.993Z,12.30
2023-08-27T21:49:15.432Z,11.70
2023-08-27T22:01:16.108Z,10.60
2023-08-27T22:13:16.349Z,8.50
2023-08-27T22:25:16.820Z,10.30
2023-08-27T22:37:17.258Z,7.90
2023-08-27T22:49:17.781Z,10.20
2023-08-27T23:01:18.253Z,10.40
2023-08-27T23:13:18.691Z,9.80
2023-08-27T23:25:19.111Z,7.50
2023-08-27T23:37:19.579Z,8.10
2023-08-27T23:49:19.982Z,7.20
